Wetterdaten: Woche 03.07.17 - 09.07.17 (KW27)
Datum Zeit Temp. Aussen Temp. o. S. +5cm Feuchte Auss BlattFeu 1 Luftdruck Regen Sonnenschein Regendauer Solar Windben Empfang
03.07.2017 00:00 13,1 C 11,4 C 10,1 C 83 % 0 lf 1021,8 hPa 0,0 l/m 0,00 h 0,00 h 2 W/m 4,6 km/h (1 Bft) 96,30 %
03.07.2017 01:00 12,2 C 10,5 C 9,4 C 85 % 1 lf 1021,9 hPa 0,0 l/m 0,00 h 0,00 h 4 W/m 2,0 km/h (1 Bft) 98,51 %
03.07.2017 02:00 11,4 C 10,0 C 8,8 C 88 % 2 lf 1021,9 hPa 0,0 l/m 0,00 h 0,00 h 3 W/m 2,9 km/h (1 Bft) 95,47 %
03.07.2017 03:00 10,7 C 9,1 C 8,2 C 90 % 4 lf 1021,8 hPa 0,0 l/m 0,00 h 0,00 h 2 W/m 2,2 km/h (1 Bft) 97,20 %
03.07.2017 04:00 10,0 C 8,9 C 7,8 C 91 % 12 lf 1021,8 hPa 0,0 l/m 0,00 h 0,00 h 4 W/m 1,5 km/h (1 Bft) 95,29 %
03.07.2017 05:00 9,7 C 9,1 C 7,9 C 93 % 15 lf 1021,9 hPa 0,0 l/m 0,23 h 0,00 h 16 W/m 5,0 km/h (1 Bft) 96,15 %
03.07.2017 06:00 10,1 C 10,2 C 8,8 C 95 % 15 lf 1021,8 hPa 0,0 l/m 1,00 h 0,00 h 98 W/m 6,0 km/h (2 Bft) 97,12 %
03.07.2017 07:00 11,1 C 12,4 C 10,1 C 96 % 9 lf 1021,7 hPa 0,0 l/m 1,00 h 0,00 h 254 W/m 4,9 km/h (1 Bft) 97,15 %
03.07.2017 08:00 12,9 C 18,8 C 12,4 C 95 % 0 lf 1021,8 hPa 0,0 l/m 1,00 h 0,00 h 414 W/m 9,4 km/h (2 Bft) 93,84 %
03.07.2017 09:00 17,3 C 27,1 C 17,6 C 75 % 0 lf 1021,8 hPa 0,0 l/m 1,00 h 0,00 h 576 W/m 10,5 km/h (2 Bft) 98,09 %
03.07.2017 10:00 19,9 C 28,6 C 25,3 C 63 % 0 lf 1021,5 hPa 0,0 l/m 1,02 h 0,00 h 720 W/m 15,3 km/h (3 Bft) 97,34 %
03.07.2017 11:00 21,4 C 29,9 C 26,5 C 60 % 0 lf 1021,1 hPa 0,0 l/m 0,93 h 0,00 h 812 W/m 18,6 km/h (3 Bft) 96,27 %
03.07.2017 12:00 23,0 C 30,3 C 28,0 C 56 % 0 lf 1020,6 hPa 0,0 l/m 0,92 h 0,00 h 820 W/m 20,7 km/h (4 Bft) 99,93 %
03.07.2017 13:00 23,7 C 29,6 C 27,2 C 54 % 0 lf 1020,1 hPa 0,0 l/m 1,02 h 0,00 h 947 W/m 20,5 km/h (4 Bft) 97,96 %
03.07.2017 14:00 23,7 C 27,3 C 27,7 C 54 % 0 lf 1019,7 hPa 0,0 l/m 0,87 h 0,00 h 556 W/m 19,0 km/h (3 Bft) 93,52 %
03.07.2017 15:00 24,3 C 27,8 C 29,0 C 54 % 0 lf 1019,3 hPa 0,0 l/m 0,87 h 0,00 h 590 W/m 21,0 km/h (4 Bft) 98,64 %
03.07.2017 16:00 23,8 C 25,7 C 26,7 C 55 % 0 lf 1019,2 hPa 0,0 l/m 0,77 h 0,00 h 419 W/m 21,8 km/h (4 Bft) 97,01 %
03.07.2017 17:00 23,5 C 24,7 C 25,1 C 55 % 0 lf 1019,0 hPa 0,0 l/m 0,40 h 0,00 h 288 W/m 18,5 km/h (3 Bft) 95,16 %
03.07.2017 18:00 22,6 C 23,1 C 22,7 C 59 % 0 lf 1018,7 hPa 0,0 l/m 0,07 h 0,00 h 158 W/m 16,5 km/h (3 Bft) 97,08 %
03.07.2017 19:00 22,2 C 22,5 C 21,6 C 59 % 0 lf 1018,6 hPa 0,0 l/m 0,50 h 0,00 h 176 W/m 17,1 km/h (3 Bft) 97,01 %
03.07.2017 20:00 21,7 C 21,5 C 20,3 C 61 % 0 lf 1018,5 hPa 0,0 l/m 0,20 h 0,00 h 76 W/m 7,3 km/h (2 Bft) 97,29 %
03.07.2017 21:00 21,0 C 19,5 C 17,8 C 63 % 0 lf 1018,4 hPa 0,0 l/m 0,20 h 0,00 h 19 W/m 1,6 km/h (1 Bft) 94,37 %
03.07.2017 22:00 19,5 C 18,1 C 16,6 C 69 % 0 lf 1018,7 hPa 0,0 l/m 0,00 h 0,00 h 2 W/m 2,7 km/h (1 Bft) 98,29 %
03.07.2017 23:00 18,7 C 17,9 C 16,7 C 73 % 0 lf 1019,1 hPa 0,0 l/m 0,00 h 0,00 h 2 W/m 7,7 km/h (2 Bft) 97,09 %
04.07.2017 00:00 18,2 C 17,8 C 16,7 C 71 % 0 lf 1019,3 hPa 0,0 l/m 0,00 h 0,00 h 0 W/m 9,1 km/h (2 Bft) 93,62 %
04.07.2017 01:00 17,9 C 17,1 C 16,0 C 73 % 0 lf 1019,5 hPa 0,0 l/m 0,00 h 0,00 h 0 W/m 7,3 km/h (2 Bft) 97,87 %
04.07.2017 02:00 17,3 C 16,1 C 14,6 C 76 % 0 lf 1019,3 hPa 0,0 l/m 0,00 h 0,00 h 0 W/m 4,9 km/h (1 Bft) 97,35 %
04.07.2017 03:00 16,3 C 15,1 C 13,7 C 81 % 0 lf 1019,2 hPa 0,0 l/m 0,00 h 0,00 h 4 W/m 2,5 km/h (1 Bft) 95,38 %
04.07.2017 04:00 15,5 C 14,8 C 13,7 C 85 % 0 lf 1019,3 hPa 0,0 l/m 0,00 h 0,00 h 4 W/m 8,3 km/h (2 Bft) 96,21 %
04.07.2017 05:00 15,1 C 14,6 C 13,6 C 89 % 0 lf 1019,4 hPa 0,0 l/m 0,00 h 0,00 h 8 W/m 10,3 km/h (2 Bft) 96,84 %
04.07.2017 06:00 14,9 C 15,0 C 14,2 C 90 % 0 lf 1019,7 hPa 0,0 l/m 0,00 h 0,00 h 20 W/m 11,9 km/h (2 Bft) 96,30 %
04.07.2017 07:00 15,4 C 16,2 C 15,5 C 90 % 0 lf 1019,9 hPa 0,0 l/m 0,03 h 0,00 h 78 W/m 13,3 km/h (3 Bft) 97,65 %
04.07.2017 08:00 16,4 C 18,0 C 17,4 C 89 % 0 lf 1020,2 hPa 0,0 l/m 0,17 h 0,00 h 177 W/m 14,4 km/h (3 Bft) 95,01 %
04.07.2017 09:00 17,9 C 21,3 C 20,1 C 86 % 0 lf 1020,6 hPa 0,0 l/m 0,67 h 0,00 h 338 W/m 15,6 km/h (3 Bft) 96,72 %
04.07.2017 10:00 18,6 C 23,3 C 22,2 C 83 % 0 lf 1020,7 hPa 0,0 l/m 0,88 h 0,00 h 473 W/m 17,4 km/h (3 Bft) 98,32 %
04.07.2017 11:00 21,1 C 29,2 C 27,1 C 76 % 0 lf 1020,5 hPa 0,0 l/m 1,00 h 0,00 h 851 W/m 13,7 km/h (3 Bft) 93,60 %
04.07.2017 12:00 22,2 C 26,6 C 25,5 C 71 % 0 lf 1020,3 hPa 0,0 l/m 0,43 h 0,00 h 420 W/m 10,8 km/h (2 Bft) 97,46 %
04.07.2017 13:00 23,4 C 29,5 C 27,1 C 69 % 0 lf 1020,0 hPa 0,0 l/m 0,80 h 0,00 h 765 W/m 12,6 km/h (3 Bft) 97,64 %
04.07.2017 14:00 24,7 C 30,9 C 31,6 C 63 % 0 lf 1019,8 hPa 0,0 l/m 0,97 h 0,00 h 868 W/m 15,5 km/h (3 Bft) 95,73 %
04.07.2017 15:00 25,3 C 30,0 C 34,3 C 61 % 0 lf 1019,4 hPa 0,0 l/m 0,90 h 0,00 h 799 W/m 13,5 km/h (3 Bft) 95,97 %
04.07.2017 16:00 26,0 C 27,5 C 34,8 C 57 % 0 lf 1019,1 hPa 0,0 l/m 0,87 h 0,00 h 649 W/m 12,6 km/h (3 Bft) 97,41 %
04.07.2017 17:00 25,0 C 25,6 C 25,1 C 56 % 0 lf 1018,7 hPa 0,0 l/m 0,47 h 0,00 h 363 W/m 7,8 km/h (2 Bft) 96,53 %
04.07.2017 18:00 24,7 C 24,8 C 23,2 C 54 % 0 lf 1018,4 hPa 0,0 l/m 0,93 h 0,00 h 378 W/m 7,1 km/h (2 Bft) 96,22 %
04.07.2017 19:00 23,9 C 23,7 C 20,8 C 58 % 0 lf 1018,0 hPa 0,0 l/m 0,87 h 0,00 h 222 W/m 7,1 km/h (2 Bft) 95,92 %
04.07.2017 20:00 23,2 C 22,4 C 20,9 C 64 % 0 lf 1017,8 hPa 0,0 l/m 0,37 h 0,00 h 77 W/m 8,4 km/h (2 Bft) 98,86 %
04.07.2017 21:00 21,9 C 20,7 C 19,5 C 70 % 0 lf 1017,9 hPa 0,0 l/m 0,50 h 0,00 h 29 W/m 8,1 km/h (2 Bft) 94,09 %
04.07.2017 22:00 20,5 C 18,6 C 17,2 C 74 % 0 lf 1018,0 hPa 0,0 l/m 0,00 h 0,00 h 4 W/m 4,8 km/h (1 Bft) 97,37 %
04.07.2017 23:00 19,2 C 17,0 C 15,4 C 78 % 0 lf 1018,0 hPa 0,0 l/m 0,00 h 0,00 h 3 W/m 0,1 km/h (0 Bft) 97,94 %
05.07.2017 00:00 17,8 C 15,6 C 14,3 C 82 % 0 lf 1017,9 hPa 0,0 l/m 0,00 h 0,00 h 2 W/m 0,1 km/h (0 Bft) 94,56 %
05.07.2017 01:00 16,7 C 14,8 C 13,7 C 86 % 1 lf 1017,6 hPa 0,0 l/m 0,00 h 0,00 h 0 W/m 0,0 km/h (0 Bft) 95,37 %
05.07.2017 02:00 15,8 C 14,3 C 13,4 C 88 % 1 lf 1017,4 hPa 0,0 l/m 0,00 h 0,00 h 0 W/m 0,4 km/h (0 Bft) 99,00 %
05.07.2017 03:00 15,3 C 13,9 C 12,9 C 90 % 1 lf 1017,3 hPa 0,0 l/m 0,00 h 0,00 h 0 W/m 0,0 km/h (0 Bft) 95,30 %
05.07.2017 04:00 14,8 C 13,8 C 12,3 C 91 % 4 lf 1016,8 hPa 0,0 l/m 0,00 h 0,00 h 0 W/m 0,2 km/h (0 Bft) 96,95 %
05.07.2017 05:00 14,3 C 13,2 C 12,0 C 93 % 12 lf 1016,7 hPa 0,0 l/m 0,00 h 0,00 h 12 W/m 0,1 km/h (0 Bft) 95,51 %
05.07.2017 06:00 14,0 C 13,9 C 12,6 C 93 % 13 lf 1016,6 hPa 0,0 l/m 0,57 h 0,00 h 72 W/m 0,1 km/h (0 Bft) 96,09 %
05.07.2017 07:00 14,9 C 17,1 C 14,7 C 96 % 2 lf 1016,9 hPa 0,0 l/m 1,00 h 0,00 h 204 W/m 0,3 km/h (0 Bft) 96,80 %
05.07.2017 08:00 16,6 C 23,9 C 17,3 C 97 % 0 lf 1017,1 hPa 0,0 l/m 1,00 h 0,00 h 385 W/m 5,5 km/h (1 Bft) 96,87 %
05.07.2017 09:00 21,7 C 32,9 C 22,9 C 77 % 0 lf 1017,2 hPa 0,0 l/m 1,00 h 0,00 h 550 W/m 8,7 km/h (2 Bft) 94,16 %
05.07.2017 10:00 24,8 C 34,8 C 29,3 C 62 % 0 lf 1017,3 hPa 0,0 l/m 0,90 h 0,00 h 691 W/m 11,1 km/h (2 Bft) 99,01 %
05.07.2017 11:00 25,6 C 34,0 C 30,3 C 59 % 0 lf 1017,3 hPa 0,0 l/m 0,90 h 0,00 h 718 W/m 11,0 km/h (2 Bft) 96,44 %
05.07.2017 12:00 26,5 C 32,6 C 29,8 C 56 % 0 lf 1017,1 hPa 0,0 l/m 0,60 h 0,00 h 583 W/m 9,9 km/h (2 Bft) 94,87 %
05.07.2017 13:00 27,5 C 33,3 C 30,3 C 54 % 0 lf 1016,9 hPa 0,0 l/m 0,73 h 0,00 h 666 W/m 11,9 km/h (2 Bft) 97,87 %
05.07.2017 14:00 27,6 C 32,8 C 32,8 C 53 % 0 lf 1016,5 hPa 0,0 l/m 0,77 h 0,00 h 663 W/m 11,1 km/h (2 Bft) 97,79 %
05.07.2017 15:00 28,1 C 32,3 C 34,2 C 52 % 0 lf 1016,2 hPa 0,0 l/m 0,73 h 0,00 h 629 W/m 14,0 km/h (3 Bft) 93,03 %
05.07.2017 16:00 28,5 C 30,4 C 34,2 C 51 % 0 lf 1016,1 hPa 0,0 l/m 0,77 h 0,00 h 557 W/m 13,9 km/h (3 Bft) 98,79 %
05.07.2017 17:00 27,9 C 28,8 C 28,4 C 53 % 0 lf 1016,0 hPa 0,0 l/m 0,60 h 0,00 h 384 W/m 13,5 km/h (3 Bft) 95,80 %
05.07.2017 18:00 27,3 C 28,1 C 26,8 C 55 % 0 lf 1015,8 hPa 0,0 l/m 0,87 h 0,00 h 395 W/m 13,3 km/h (3 Bft) 96,30 %
05.07.2017 19:00 26,7 C 26,6 C 25,4 C 57 % 0 lf 1015,8 hPa 0,0 l/m 1,00 h 0,00 h 245 W/m 14,0 km/h (3 Bft) 96,30 %
05.07.2017 20:00 25,7 C 24,8 C 23,4 C 61 % 0 lf 1016,1 hPa 0,0 l/m 0,17 h 0,00 h 65 W/m 8,9 km/h (2 Bft) 97,50 %
05.07.2017 21:00 24,3 C 22,9 C 21,4 C 65 % 0 lf 1016,3 hPa 0,0 l/m 0,00 h 0,00 h 18 W/m 10,4 km/h (2 Bft) 96,08 %
05.07.2017 22:00 22,5 C 20,7 C 19,3 C 72 % 0 lf 1017,1 hPa 0,0 l/m 0,00 h 0,00 h 0 W/m 10,8 km/h (2 Bft) 94,94 %
05.07.2017 23:00 20,9 C 19,2 C 18,0 C 78 % 0 lf 1017,4 hPa 0,0 l/m 0,00 h 0,00 h 0 W/m 8,6 km/h (2 Bft) 97,15 %
06.07.2017 00:00 19,6 C 17,9 C 16,5 C 81 % 0 lf 1017,4 hPa 0,0 l/m 0,00 h 0,00 h 4 W/m 4,5 km/h (1 Bft) 97,54 %
06.07.2017 01:00 18,5 C 16,6 C 15,0 C 83 % 1 lf 1017,4 hPa 0,0 l/m 0,00 h 0,00 h 3 W/m 0,0 km/h (0 Bft) 94,38 %
06.07.2017 02:00 17,4 C 15,7 C 14,1 C 85 % 1 lf 1017,4 hPa 0,0 l/m 0,00 h 0,00 h 3 W/m 0,0 km/h (0 Bft) 97,94 %
06.07.2017 03:00 16,5 C 14,7 C 13,4 C 87 % 2 lf 1017,4 hPa 0,0 l/m 0,00 h 0,00 h 5 W/m 0,0 km/h (0 Bft) 96,51 %
06.07.2017 04:00 15,8 C 14,2 C 12,8 C 88 % 3 lf 1017,4 hPa 0,0 l/m 0,00 h 0,00 h 5 W/m 0,0 km/h (0 Bft) 96,66 %
06.07.2017 05:00 15,2 C 13,9 C 12,7 C 90 % 12 lf 1017,5 hPa 0,0 l/m 0,00 h 0,00 h 10 W/m 0,0 km/h (0 Bft) 96,29 %
06.07.2017 06:00 14,9 C 14,4 C 13,2 C 92 % 13 lf 1017,7 hPa 0,0 l/m 0,67 h 0,00 h 74 W/m 0,0 km/h (0 Bft) 95,66 %
06.07.2017 07:00 15,6 C 16,7 C 15,2 C 95 % 1 lf 1017,8 hPa 0,0 l/m 1,00 h 0,00 h 224 W/m 0,0 km/h (0 Bft) 96,44 %
06.07.2017 08:00 17,2 C 23,7 C 17,9 C 95 % 0 lf 1017,7 hPa 0,0 l/m 1,00 h 0,00 h 384 W/m 2,5 km/h (1 Bft) 98,36 %
06.07.2017 09:00 21,8 C 32,5 C 23,4 C 79 % 0 lf 1017,7 hPa 0,0 l/m 1,00 h 0,00 h 578 W/m 9,4 km/h (2 Bft) 93,78 %
06.07.2017 10:00 24,9 C 33,3 C 30,3 C 66 % 0 lf 1017,4 hPa 0,0 l/m 1,00 h 0,00 h 638 W/m 11,4 km/h (2 Bft) 97,70 %
06.07.2017 11:00 27,0 C 34,2 C 32,5 C 57 % 0 lf 1017,0 hPa 0,0 l/m 0,97 h 0,00 h 753 W/m 9,3 km/h (2 Bft) 97,84 %
06.07.2017 12:00 28,6 C 34,1 C 34,4 C 54 % 0 lf 1016,5 hPa 0,0 l/m 0,97 h 0,00 h 673 W/m 11,1 km/h (2 Bft) 94,23 %
06.07.2017 13:00 29,0 C 32,9 C 32,5 C 53 % 0 lf 1016,6 hPa 0,0 l/m 0,87 h 0,00 h 580 W/m 8,9 km/h (2 Bft) 96,65 %
06.07.2017 14:00 29,6 C 33,3 C 33,2 C 49 % 0 lf 1015,9 hPa 0,0 l/m 0,67 h 0,00 h 618 W/m 10,7 km/h (2 Bft) 98,50 %
06.07.2017 15:00 29,6 C 30,1 C 30,1 C 49 % 0 lf 1015,6 hPa 0,0 l/m 0,20 h 0,00 h 243 W/m 5,2 km/h (1 Bft) 95,08 %
06.07.2017 16:00 27,8 C 24,1 C 23,2 C 59 % 5 lf 1015,2 hPa 0,6 l/m 0,00 h 0,50 h 40 W/m 6,1 km/h (2 Bft) 96,03 %
06.07.2017 17:00 25,2 C 24,7 C 22,9 C 75 % 2 lf 1014,5 hPa 0,0 l/m 0,20 h 0,00 h 262 W/m 6,5 km/h (2 Bft) 97,51 %
06.07.2017 18:00 25,7 C 25,7 C 24,9 C 74 % 0 lf 1014,5 hPa 0,0 l/m 0,00 h 0,03 h 124 W/m 5,4 km/h (1 Bft) 96,75 %
06.07.2017 19:00 25,3 C 25,1 C 24,1 C 74 % 0 lf 1013,9 hPa 0,0 l/m 0,10 h 0,07 h 112 W/m 7,7 km/h (2 Bft) 95,94 %
06.07.2017 20:00 24,4 C 23,6 C 22,5 C 79 % 0 lf 1014,2 hPa 0,2 l/m 0,10 h 0,00 h 42 W/m 13,1 km/h (3 Bft) 96,68 %
06.07.2017 21:00 22,4 C 21,3 C 20,0 C 82 % 0 lf 1013,5 hPa 0,0 l/m 0,00 h 0,00 h 13 W/m 15,9 km/h (3 Bft) 97,29 %
06.07.2017 22:00 21,2 C 20,6 C 19,4 C 87 % 0 lf 1013,2 hPa 0,0 l/m 0,00 h 0,00 h 0 W/m 13,5 km/h (3 Bft) 96,75 %
06.07.2017 23:00 21,1 C 20,7 C 19,3 C 89 % 6 lf 1014,3 hPa 0,0 l/m 0,00 h 0,13 h 0 W/m 17,4 km/h (3 Bft) 94,84 %
07.07.2017 00:00 20,7 C 20,2 C 19,1 C 89 % 0 lf 1014,6 hPa 0,0 l/m 0,00 h 0,07 h 0 W/m 21,5 km/h (4 Bft) 97,90 %
07.07.2017 01:00 20,2 C 19,8 C 18,2 C 89 % 0 lf 1013,5 hPa 0,0 l/m 0,00 h 0,00 h 0 W/m 12,3 km/h (3 Bft) 96,30 %
07.07.2017 02:00 19,7 C 18,5 C 16,9 C 88 % 1 lf 1013,2 hPa 0,0 l/m 0,00 h 0,00 h 0 W/m 6,3 km/h (2 Bft) 95,94 %
07.07.2017 03:00 19,0 C 18,3 C 16,6 C 90 % 1 lf 1012,6 hPa 0,0 l/m 0,00 h 0,00 h 0 W/m 5,1 km/h (1 Bft) 97,05 %
07.07.2017 04:00 18,7 C 17,9 C 16,2 C 91 % 1 lf 1012,5 hPa 0,0 l/m 0,00 h 0,00 h 0 W/m 3,1 km/h (1 Bft) 96,45 %
07.07.2017 05:00 18,2 C 17,3 C 15,6 C 92 % 1 lf 1012,8 hPa 0,0 l/m 0,00 h 0,00 h 11 W/m 2,3 km/h (1 Bft) 97,08 %
07.07.2017 06:00 17,9 C 17,7 C 16,3 C 94 % 1 lf 1012,8 hPa 0,0 l/m 0,40 h 0,00 h 64 W/m 6,6 km/h (2 Bft) 95,90 %
07.07.2017 07:00 18,6 C 19,8 C 18,0 C 95 % 1 lf 1012,5 hPa 0,0 l/m 1,00 h 0,00 h 220 W/m 11,2 km/h (2 Bft) 94,88 %
07.07.2017 08:00 20,7 C 24,9 C 20,0 C 84 % 0 lf 1012,5 hPa 0,0 l/m 1,00 h 0,00 h 378 W/m 18,4 km/h (3 Bft) 99,29 %
07.07.2017 09:00 23,8 C 30,6 C 24,4 C 75 % 0 lf 1012,8 hPa 0,0 l/m 0,97 h 0,00 h 496 W/m 19,7 km/h (3 Bft) 95,58 %
07.07.2017 10:00 26,4 C 34,2 C 31,0 C 71 % 0 lf 1012,8 hPa 0,0 l/m 1,00 h 0,00 h 631 W/m 16,6 km/h (3 Bft) 95,16 %
07.07.2017 11:00 28,4 C 35,7 C 33,1 C 68 % 0 lf 1013,0 hPa 0,0 l/m 0,97 h 0,00 h 722 W/m 17,4 km/h (3 Bft) 97,94 %
07.07.2017 12:00 29,9 C 36,3 C 34,2 C 63 % 0 lf 1013,0 hPa 0,0 l/m 0,90 h 0,00 h 807 W/m 21,3 km/h (4 Bft) 96,87 %
07.07.2017 13:00 30,5 C 34,5 C 32,2 C 60 % 0 lf 1013,1 hPa 0,0 l/m 0,67 h 0,00 h 558 W/m 20,5 km/h (4 Bft) 93,96 %
07.07.2017 14:00 29,6 C 33,0 C 33,4 C 60 % 0 lf 1013,5 hPa 0,0 l/m 0,50 h 0,00 h 553 W/m 25,1 km/h (4 Bft) 98,70 %
07.07.2017 15:00 31,3 C 35,1 C 39,1 C 52 % 0 lf 1013,7 hPa 0,0 l/m 0,90 h 0,00 h 747 W/m 25,6 km/h (4 Bft) 95,09 %
07.07.2017 16:00 31,1 C 32,8 C 37,0 C 51 % 0 lf 1013,5 hPa 0,0 l/m 0,83 h 0,00 h 534 W/m 22,9 km/h (4 Bft) 95,86 %
07.07.2017 17:00 30,2 C 30,9 C 31,7 C 51 % 0 lf 1013,6 hPa 0,0 l/m 0,97 h 0,00 h 433 W/m 25,2 km/h (4 Bft) 96,91 %
07.07.2017 18:00 28,7 C 29,0 C 28,4 C 51 % 0 lf 1013,9 hPa 0,0 l/m 1,00 h 0,00 h 309 W/m 22,5 km/h (4 Bft) 96,48 %
07.07.2017 19:00 27,2 C 26,9 C 26,2 C 55 % 0 lf 1014,1 hPa 0,0 l/m 1,00 h 0,00 h 203 W/m 19,5 km/h (3 Bft) 96,38 %
07.07.2017 20:00 25,7 C 24,9 C 23,1 C 60 % 0 lf 1014,4 hPa 0,0 l/m 0,17 h 0,00 h 74 W/m 14,9 km/h (3 Bft) 95,60 %
07.07.2017 21:00 24,1 C 22,6 C 20,8 C 63 % 0 lf 1014,7 hPa 0,0 l/m 0,00 h 0,00 h 18 W/m 8,9 km/h (2 Bft) 97,63 %
07.07.2017 22:00 22,6 C 20,7 C 19,3 C 74 % 0 lf 1015,1 hPa 0,0 l/m 0,00 h 0,00 h 0 W/m 8,3 km/h (2 Bft) 97,10 %
07.07.2017 23:00 21,1 C 18,8 C 17,2 C 78 % 0 lf 1015,5 hPa 0,0 l/m 0,00 h 0,00 h 0 W/m 3,3 km/h (1 Bft) 94,65 %
08.07.2017 00:00 19,8 C 18,3 C 16,9 C 82 % 0 lf 1015,6 hPa 0,0 l/m 0,00 h 0,00 h 0 W/m 1,6 km/h (1 Bft) 97,60 %
08.07.2017 01:00 19,0 C 17,5 C 16,1 C 84 % 1 lf 1015,7 hPa 0,0 l/m 0,00 h 0,00 h 0 W/m 1,9 km/h (1 Bft) 96,71 %
08.07.2017 02:00 18,4 C 17,2 C 16,0 C 87 % 1 lf 1015,6 hPa 0,0 l/m 0,00 h 0,00 h 0 W/m 3,3 km/h (1 Bft) 96,41 %
08.07.2017 03:00 18,0 C 16,7 C 15,7 C 88 % 1 lf 1015,4 hPa 0,0 l/m 0,00 h 0,00 h 0 W/m 1,0 km/h (0 Bft) 96,41 %
08.07.2017 04:00 17,4 C 15,6 C 14,6 C 89 % 2 lf 1015,2 hPa 0,0 l/m 0,00 h 0,00 h 0 W/m 0,3 km/h (0 Bft) 96,05 %
08.07.2017 05:00 16,9 C 16,0 C 15,3 C 90 % 2 lf 1015,1 hPa 0,0 l/m 0,00 h 0,00 h 10 W/m 0,5 km/h (0 Bft) 96,77 %
08.07.2017 06:00 17,0 C 17,2 C 16,5 C 92 % 1 lf 1015,3 hPa 0,0 l/m 0,00 h 0,00 h 37 W/m 1,4 km/h (1 Bft) 96,46 %
08.07.2017 07:00 17,7 C 19,6 C 18,5 C 94 % 0 lf 1015,2 hPa 0,0 l/m 0,30 h 0,00 h 118 W/m 2,9 km/h (1 Bft) 94,44 %
08.07.2017 08:00 19,1 C 23,1 C 20,5 C 90 % 0 lf 1015,2 hPa 0,0 l/m 0,77 h 0,00 h 280 W/m 6,4 km/h (2 Bft) 96,52 %
08.07.2017 09:00 21,8 C 27,7 C 24,7 C 77 % 0 lf 1015,5 hPa 0,0 l/m 0,90 h 0,00 h 410 W/m 5,9 km/h (2 Bft) 98,65 %
08.07.2017 10:00 25,1 C 32,4 C 30,9 C 64 % 0 lf 1015,5 hPa 0,0 l/m 1,00 h 0,00 h 631 W/m 7,7 km/h (2 Bft) 92,88 %
08.07.2017 11:00 27,3 C 34,5 C 33,4 C 55 % 0 lf 1015,5 hPa 0,0 l/m 0,97 h 0,00 h 761 W/m 11,4 km/h (2 Bft) 98,29 %
08.07.2017 12:00 28,6 C 34,3 C 33,8 C 53 % 0 lf 1015,5 hPa 0,0 l/m 0,80 h 0,00 h 610 W/m 11,2 km/h (2 Bft) 97,85 %
08.07.2017 13:00 28,0 C 32,2 C 30,9 C 54 % 0 lf 1015,3 hPa 0,0 l/m 0,83 h 0,00 h 530 W/m 9,7 km/h (2 Bft) 94,80 %
08.07.2017 14:00 29,3 C 35,1 C 34,4 C 51 % 0 lf 1014,9 hPa 0,0 l/m 0,80 h 0,00 h 699 W/m 13,4 km/h (3 Bft) 96,65 %
08.07.2017 15:00 29,8 C 34,1 C 36,6 C 51 % 0 lf 1014,8 hPa 0,0 l/m 0,93 h 0,00 h 687 W/m 17,0 km/h (3 Bft) 98,72 %
08.07.2017 16:00 30,5 C 32,5 C 37,9 C 49 % 0 lf 1014,4 hPa 0,0 l/m 0,87 h 0,00 h 638 W/m 17,6 km/h (3 Bft) 94,62 %
08.07.2017 17:00 28,4 C 27,7 C 27,4 C 52 % 0 lf 1014,1 hPa 0,0 l/m 0,00 h 0,00 h 94 W/m 16,1 km/h (3 Bft) 97,22 %
08.07.2017 18:00 26,5 C 26,9 C 26,4 C 61 % 0 lf 1014,2 hPa 0,0 l/m 0,13 h 0,00 h 156 W/m 13,2 km/h (3 Bft) 96,07 %
08.07.2017 19:00 26,0 C 26,4 C 26,0 C 64 % 0 lf 1014,3 hPa 0,0 l/m 0,37 h 0,00 h 143 W/m 12,3 km/h (3 Bft) 97,37 %
08.07.2017 20:00 25,2 C 24,8 C 24,2 C 68 % 0 lf 1014,3 hPa 0,0 l/m 0,33 h 0,00 h 69 W/m 10,8 km/h (2 Bft) 96,30 %
08.07.2017 21:00 23,6 C 22,3 C 21,4 C 73 % 0 lf 1014,5 hPa 0,0 l/m 0,23 h 0,00 h 19 W/m 19,9 km/h (4 Bft) 96,51 %
08.07.2017 22:00 21,2 C 20,2 C 19,3 C 79 % 0 lf 1015,1 hPa 0,0 l/m 0,00 h 0,00 h 0 W/m 17,8 km/h (3 Bft) 96,73 %
08.07.2017 23:00 20,4 C 19,7 C 18,9 C 82 % 0 lf 1015,4 hPa 0,0 l/m 0,00 h 0,00 h 0 W/m 11,9 km/h (2 Bft) 97,50 %
09.07.2017 00:00 19,6 C 18,5 C 17,6 C 83 % 0 lf 1015,4 hPa 0,0 l/m 0,00 h 0,00 h 0 W/m 12,2 km/h (2 Bft) 95,08 %
09.07.2017 01:00 18,9 C 18,3 C 17,5 C 85 % 0 lf 1015,3 hPa 0,0 l/m 0,00 h 0,00 h 0 W/m 12,2 km/h (2 Bft) 98,37 %
09.07.2017 02:00 18,4 C 17,4 C 16,6 C 85 % 0 lf 1014,8 hPa 0,0 l/m 0,00 h 0,00 h 0 W/m 11,5 km/h (2 Bft) 96,08 %
09.07.2017 03:00 17,5 C 16,9 C 16,0 C 88 % 0 lf 1014,6 hPa 0,0 l/m 0,00 h 0,00 h 0 W/m 11,9 km/h (2 Bft) 97,37 %
09.07.2017 04:00 17,1 C 16,6 C 15,7 C 89 % 1 lf 1014,7 hPa 0,0 l/m 0,00 h 0,00 h 0 W/m 8,3 km/h (2 Bft) 95,16 %
09.07.2017 05:00 16,6 C 15,8 C 14,9 C 89 % 1 lf 1014,5 hPa 0,0 l/m 0,00 h 0,00 h 8 W/m 7,4 km/h (2 Bft) 96,38 %
09.07.2017 06:00 16,2 C 16,3 C 15,4 C 90 % 1 lf 1014,5 hPa 0,0 l/m 0,00 h 0,00 h 31 W/m 3,5 km/h (1 Bft) 97,90 %
09.07.2017 07:00 16,4 C 18,0 C 16,8 C 91 % 0 lf 1014,3 hPa 0,0 l/m 0,47 h 0,00 h 131 W/m 7,0 km/h (2 Bft) 95,94 %
09.07.2017 08:00 17,6 C 23,7 C 19,0 C 88 % 0 lf 1014,2 hPa 0,0 l/m 0,93 h 0,00 h 333 W/m 6,4 km/h (2 Bft) 94,14 %
09.07.2017 09:00 20,5 C 31,4 C 22,3 C 80 % 0 lf 1013,9 hPa 0,0 l/m 1,00 h 0,00 h 520 W/m 8,1 km/h (2 Bft) 98,87 %
09.07.2017 10:00 22,7 C 31,0 C 27,1 C 73 % 0 lf 1013,7 hPa 0,0 l/m 0,70 h 0,00 h 544 W/m 8,5 km/h (2 Bft) 96,21 %
09.07.2017 11:00 24,3 C 32,6 C 28,7 C 66 % 0 lf 1013,5 hPa 0,0 l/m 0,90 h 0,00 h 690 W/m 10,4 km/h (2 Bft) 94,56 %
09.07.2017 12:00 24,8 C 31,2 C 28,8 C 63 % 0 lf 1013,2 hPa 0,0 l/m 0,93 h 0,00 h 609 W/m 10,9 km/h (2 Bft) 97,73 %
09.07.2017 13:00 25,8 C 32,6 C 28,6 C 58 % 0 lf 1013,0 hPa 0,0 l/m 1,00 h 0,00 h 765 W/m 10,7 km/h (2 Bft) 95,99 %
09.07.2017 14:00 26,1 C 31,9 C 31,1 C 55 % 0 lf 1012,6 hPa 0,0 l/m 1,00 h 0,00 h 756 W/m 11,7 km/h (2 Bft) 94,83 %
09.07.2017 15:00 26,2 C 31,5 C 33,0 C 54 % 0 lf 1012,1 hPa 0,0 l/m 1,00 h 0,00 h 677 W/m 10,6 km/h (2 Bft) 98,29 %
09.07.2017 16:00 26,9 C 29,5 C 34,2 C 51 % 0 lf 1011,4 hPa 0,0 l/m 1,00 h 0,00 h 624 W/m 10,6 km/h (2 Bft) 96,49 %
09.07.2017 17:00 27,5 C 28,7 C 28,7 C 46 % 0 lf 1010,8 hPa 0,0 l/m 1,00 h 0,00 h 558 W/m 11,8 km/h (2 Bft) 95,64 %
09.07.2017 18:00 26,5 C 27,4 C 26,8 C 49 % 0 lf 1010,2 hPa 0,0 l/m 1,00 h 0,00 h 551 W/m 12,3 km/h (3 Bft) 96,35 %
09.07.2017 19:00 25,6 C 25,9 C 25,0 C 51 % 0 lf 1009,8 hPa 0,0 l/m 1,00 h 0,03 h 329 W/m 9,6 km/h (2 Bft) 98,07 %
09.07.2017 20:00 24,5 C 23,7 C 23,0 C 54 % 0 lf 1009,5 hPa 0,0 l/m 1,00 h 0,00 h 174 W/m 8,9 km/h (2 Bft) 96,33 %
09.07.2017 21:00 23,2 C 22,0 C 20,9 C 59 % 0 lf 1009,4 hPa 0,0 l/m 0,57 h 0,00 h 52 W/m 10,4 km/h (2 Bft) 93,90 %
09.07.2017 22:00 21,9 C 20,4 C 19,4 C 65 % 0 lf 1009,9 hPa 0,0 l/m 0,00 h 0,00 h 5 W/m 6,6 km/h (2 Bft) 98,86 %
09.07.2017 23:00 20,9 C 19,8 C 18,9 C 72 % 0 lf 1009,5 hPa 0,0 l/m 0,00 h 0,00 h 5 W/m 9,4 km/h (2 Bft) 97,35 %
Min-Datum _ 03.07.17 03.07.17 03.07.17 09.07.17 03.07.17 09.07.17 - - - - 03.07.17 05.07.17
_ Min-Zeit 05:06 05:14 03:48 17:54 00:00 21:30 - - - - 01:32 15:06
Minimum _ 9,7 C 8,3 C 7,8 C 44 % 0 lf 1009,2 hPa - - - - 0,0 km/h (0 Bft) 80,85 %
Max-Datum _ 07.07.17 07.07.17 08.07.17 03.07.17 03.07.17 03.07.17 06.07.17 03.07.17 06.07.17 03.07.17 07.07.17 03.07.17
_ Max-Zeit 15:32 11:50 16:10 08:02 04:52 01:12 16:38 11:05 16:28 14:48 00:14 00:18
Maximum _ 31,7 C 38,3 C 42,2 C 97 % 15 lf 1022,0 hPa 0,6 l/m 0,08 h 0,03 h 1168 W/m 37,7 km/h
NO (5 Bft)
100,00 %
Durchschnitt _ 21,7 C 23,3 C 22,0 C 73 % 1 lf 1016,3 hPa #0,8 l/m #77:10 h #50 min. 331 W/m 9,7 km/h (2 Bft) 96,51 %
© 2017 W. Hausmann